sensor_id;sensor_type;location;lat;lon;timestamp;temperature;humidity
41838;DHT22;27511;52.042;5.178;2023-04-01T00:01:22;13.50;99.90
41838;DHT22;27511;52.042;5.178;2023-04-01T00:03:47;13.40;99.90
41838;DHT22;27511;52.042;5.178;2023-04-01T00:06:14;13.40;99.90
41838;DHT22;27511;52.042;5.178;2023-04-01T00:08:40;13.40;99.90
41838;DHT22;27511;52.042;5.178;2023-04-01T00:11:05;13.60;99.90
41838;DHT22;27511;52.042;5.178;2023-04-01T00:13:31;13.50;99.90
41838;DHT22;27511;52.042;5.178;2023-04-01T00:15:56;13.60;99.90
41838;DHT22;27511;52.042;5.178;2023-04-01T00:18:22;13.70;99.90
41838;DHT22;27511;52.042;5.178;2023-04-01T00:20:48;13.60;99.90
41838;DHT22;27511;52.042;5.178;2023-04-01T00:23:14;13.60;99.90
41838;DHT22;27511;52.042;5.178;2023-04-01T00:25:40;13.50;99.90
41838;DHT22;27511;52.042;5.178;2023-04-01T00:28:05;13.40;99.90
41838;DHT22;27511;52.042;5.178;2023-04-01T00:30:31;13.30;99.90
41838;DHT22;27511;52.042;5.178;2023-04-01T00:32:56;13.30;99.90
41838;DHT22;27511;52.042;5.178;2023-04-01T00:35:22;13.30;99.90
41838;DHT22;27511;52.042;5.178;2023-04-01T00:37:47;13.30;99.90
41838;DHT22;27511;52.042;5.178;2023-04-01T00:40:24;13.10;99.90
41838;DHT22;27511;52.042;5.178;2023-04-01T00:42:50;13.10;99.90
41838;DHT22;27511;52.042;5.178;2023-04-01T00:47:50;13.00;99.90
41838;DHT22;27511;52.042;5.178;2023-04-01T00:50:16;13.10;99.90
41838;DHT22;27511;52.042;5.178;2023-04-01T00:52:41;13.20;99.90
41838;DHT22;27511;52.042;5.178;2023-04-01T00:55:07;13.20;99.90
41838;DHT22;27511;52.042;5.178;2023-04-01T00:57:35;13.10;99.90
41838;DHT22;27511;52.042;5.178;2023-04-01T01:00:03;13.10;99.90
41838;DHT22;27511;52.042;5.178;2023-04-01T01:02:29;13.20;99.90
41838;DHT22;27511;52.042;5.178;2023-04-01T01:04:56;13.00;99.90
41838;DHT22;27511;52.042;5.178;2023-04-01T01:12:35;12.70;99.90
41838;DHT22;27511;52.042;5.178;2023-04-01T01:17:44;12.40;99.90
41838;DHT22;27511;52.042;5.178;2023-04-01T01:20:20;12.50;99.90
41838;DHT22;27511;52.042;5.178;2023-04-01T01:22:52;12.50;99.90
41838;DHT22;27511;52.042;5.178;2023-04-01T01:25:30;12.50;99.90
41838;DHT22;27511;52.042;5.178;2023-04-01T01:30:51;12.40;99.90
41838;DHT22;27511;52.042;5.178;2023-04-01T01:33:33;12.40;99.90
41838;DHT22;27511;52.042;5.178;2023-04-01T01:36:02;12.30;99.90
41838;DHT22;27511;52.042;5.178;2023-04-01T01:38:29;12.30;99.90
41838;DHT22;27511;52.042;5.178;2023-04-01T01:40:56;12.30;99.90
41838;DHT22;27511;52.042;5.178;2023-04-01T01:43:30;12.40;99.90
41838;DHT22;27511;52.042;5.178;2023-04-01T01:45:57;12.50;99.90
41838;DHT22;27511;52.042;5.178;2023-04-01T01:48:23;12.50;99.90
41838;DHT22;27511;52.042;5.178;2023-04-01T01:50:49;12.30;99.90
41838;DHT22;27511;52.042;5.178;2023-04-01T01:53:15;12.40;99.90
41838;DHT22;27511;52.042;5.178;2023-04-01T01:55:42;12.40;99.90
41838;DHT22;27511;52.042;5.178;2023-04-01T01:58:16;12.50;99.90
41838;DHT22;27511;52.042;5.178;2023-04-01T02:00:43;12.30;99.90
41838;DHT22;27511;52.042;5.178;2023-04-01T02:03:10;12.40;99.90
41838;DHT22;27511;52.042;5.178;2023-04-01T02:05:37;12.30;99.90
41838;DHT22;27511;52.042;5.178;2023-04-01T02:08:05;12.20;99.90
41838;DHT22;27511;52.042;5.178;2023-04-01T02:10:32;12.30;99.90
41838;DHT22;27511;52.042;5.178;2023-04-01T02:13:00;12.40;99.90
41838;DHT22;27511;52.042;5.178;2023-04-01T02:15:26;12.50;99.90
41838;DHT22;27511;52.042;5.178;2023-04-01T02:17:52;12.50;99.90
41838;DHT22;27511;52.042;5.178;2023-04-01T02:20:22;12.50;99.90
41838;DHT22;27511;52.042;5.178;2023-04-01T02:22:52;12.50;99.90
41838;DHT22;27511;52.042;5.178;2023-04-01T02:25:20;12.40;99.90
41838;DHT22;27511;52.042;5.178;2023-04-01T02:27:47;12.40;99.90
41838;DHT22;27511;52.042;5.178;2023-04-01T02:30:13;12.50;99.90
41838;DHT22;27511;52.042;5.178;2023-04-01T02:32:39;12.30;99.90
41838;DHT22;27511;52.042;5.178;2023-04-01T02:35:09;12.30;99.90
41838;DHT22;27511;52.042;5.178;2023-04-01T02:37:35;12.20;99.90
41838;DHT22;27511;52.042;5.178;2023-04-01T02:40:05;12.00;99.90
41838;DHT22;27511;52.042;5.178;2023-04-01T02:42:34;11.90;99.90
41838;DHT22;27511;52.042;5.178;2023-04-01T02:44:59;11.90;99.90
41838;DHT22;27511;52.042;5.178;2023-04-01T02:47:25;11.90;99.90
41838;DHT22;27511;52.042;5.178;2023-04-01T02:49:50;12.00;99.90
41838;DHT22;27511;52.042;5.178;2023-04-01T02:52:16;12.00;99.90
41838;DHT22;27511;52.042;5.178;2023-04-01T02:54:42;12.00;99.90
41838;DHT22;27511;52.042;5.178;2023-04-01T02:57:07;11.80;99.90
41838;DHT22;27511;52.042;5.178;2023-04-01T02:59:33;11.90;99.90
41838;DHT22;27511;52.042;5.178;2023-04-01T03:01:58;11.90;99.90
41838;DHT22;27511;52.042;5.178;2023-04-01T03:04:24;11.90;99.90
41838;DHT22;27511;52.042;5.178;2023-04-01T03:06:49;11.90;99.90
41838;DHT22;27511;52.042;5.178;2023-04-01T03:09:15;12.10;99.90
41838;DHT22;27511;52.042;5.178;2023-04-01T03:11:41;11.90;99.90
41838;DHT22;27511;52.042;5.178;2023-04-01T03:14:06;11.90;99.90
41838;DHT22;27511;52.042;5.178;2023-04-01T03:16:32;11.80;99.90
41838;DHT22;27511;52.042;5.178;2023-04-01T03:18:58;11.90;99.90
41838;DHT22;27511;52.042;5.178;2023-04-01T03:21:25;12.00;99.90
41838;DHT22;27511;52.042;5.178;2023-04-01T03:23:50;12.00;99.90
41838;DHT22;27511;52.042;5.178;2023-04-01T03:26:16;11.90;99.90
41838;DHT22;27511;52.042;5.178;2023-04-01T03:28:42;12.00;99.90
41838;DHT22;27511;52.042;5.178;2023-04-01T03:31:07;12.10;99.90
41838;DHT22;27511;52.042;5.178;2023-04-01T03:33:33;12.10;99.90
41838;DHT22;27511;52.042;5.178;2023-04-01T03:35:58;12.10;99.90
41838;DHT22;27511;52.042;5.178;2023-04-01T03:38:24;12.10;99.90
41838;DHT22;27511;52.042;5.178;2023-04-01T03:40:49;12.00;99.90
41838;DHT22;27511;52.042;5.178;2023-04-01T03:43:15;12.00;99.90
41838;DHT22;27511;52.042;5.178;2023-04-01T03:45:48;12.10;99.90
41838;DHT22;27511;52.042;5.178;2023-04-01T03:48:14;11.90;99.90
41838;DHT22;27511;52.042;5.178;2023-04-01T03:50:40;12.00;99.90
41838;DHT22;27511;52.042;5.178;2023-04-01T03:53:06;12.00;99.90
41838;DHT22;27511;52.042;5.178;2023-04-01T03:55:31;12.00;99.90
41838;DHT22;27511;52.042;5.178;2023-04-01T03:57:57;12.10;99.90
41838;DHT22;27511;52.042;5.178;2023-04-01T04:00:22;12.20;99.90
41838;DHT22;27511;52.042;5.178;2023-04-01T04:02:48;12.30;99.90
41838;DHT22;27511;52.042;5.178;2023-04-01T04:05:13;12.30;99.90
41838;DHT22;27511;52.042;5.178;2023-04-01T04:07:39;12.20;99.90
41838;DHT22;27511;52.042;5.178;2023-04-01T04:10:05;12.20;99.90
41838;DHT22;27511;52.042;5.178;2023-04-01T04:12:30;12.20;99.90
41838;DHT22;27511;52.042;5.178;2023-04-01T04:14:56;12.20;99.90
41838;DHT22;27511;52.042;5.178;2023-04-01T04:17:21;12.10;99.90
41838;DHT22;27511;52.042;5.178;2023-04-01T04:19:47;12.10;99.90
41838;DHT22;27511;52.042;5.178;2023-04-01T04:22:12;12.00;99.90
41838;DHT22;27511;52.042;5.178;2023-04-01T04:24:38;12.00;99.90
41838;DHT22;27511;52.042;5.178;2023-04-01T04:27:03;12.00;99.90
41838;DHT22;27511;52.042;5.178;2023-04-01T04:29:29;12.00;99.90
41838;DHT22;27511;52.042;5.178;2023-04-01T04:31:55;12.00;99.90
41838;DHT22;27511;52.042;5.178;2023-04-01T04:34:20;12.10;99.90
41838;DHT22;27511;52.042;5.178;2023-04-01T04:36:47;12.20;99.90
41838;DHT22;27511;52.042;5.178;2023-04-01T04:39:13;11.90;99.90
41838;DHT22;27511;52.042;5.178;2023-04-01T04:41:39;12.00;99.90
41838;DHT22;27511;52.042;5.178;2023-04-01T04:44:05;12.00;99.90
41838;DHT22;27511;52.042;5.178;2023-04-01T04:46:30;12.10;99.90
41838;DHT22;27511;52.042;5.178;2023-04-01T04:48:56;12.20;99.90
41838;DHT22;27511;52.042;5.178;2023-04-01T04:51:22;12.30;99.90
41838;DHT22;27511;52.042;5.178;2023-04-01T04:53:48;12.30;99.90
41838;DHT22;27511;52.042;5.178;2023-04-01T04:56:17;12.20;99.90
41838;DHT22;27511;52.042;5.178;2023-04-01T04:58:42;12.20;99.90
41838;DHT22;27511;52.042;5.178;2023-04-01T05:01:11;12.10;99.90
41838;DHT22;27511;52.042;5.178;2023-04-01T05:03:37;12.20;99.90
41838;DHT22;27511;52.042;5.178;2023-04-01T05:06:03;12.30;99.90
41838;DHT22;27511;52.042;5.178;2023-04-01T05:08:29;12.20;99.90
41838;DHT22;27511;52.042;5.178;2023-04-01T05:10:54;12.30;99.90
41838;DHT22;27511;52.042;5.178;2023-04-01T05:13:20;12.30;99.90
41838;DHT22;27511;52.042;5.178;2023-04-01T05:15:45;12.30;99.90
41838;DHT22;27511;52.042;5.178;2023-04-01T05:18:11;12.30;99.90
41838;DHT22;27511;52.042;5.178;2023-04-01T05:20:36;12.20;99.90
41838;DHT22;27511;52.042;5.178;2023-04-01T05:23:02;12.30;99.90
41838;DHT22;27511;52.042;5.178;2023-04-01T05:25:27;12.10;99.90
41838;DHT22;27511;52.042;5.178;2023-04-01T05:27:53;12.10;99.90
41838;DHT22;27511;52.042;5.178;2023-04-01T05:30:19;12.20;99.90
41838;DHT22;27511;52.042;5.178;2023-04-01T05:32:44;12.30;99.90
41838;DHT22;27511;52.042;5.178;2023-04-01T05:35:10;12.30;99.90
41838;DHT22;27511;52.042;5.178;2023-04-01T05:37:36;12.30;99.90
41838;DHT22;27511;52.042;5.178;2023-04-01T05:40:02;12.30;99.90
41838;DHT22;27511;52.042;5.178;2023-04-01T05:42:27;12.20;99.90
41838;DHT22;27511;52.042;5.178;2023-04-01T05:44:53;12.20;99.90
41838;DHT22;27511;52.042;5.178;2023-04-01T05:47:18;12.10;99.90
41838;DHT22;27511;52.042;5.178;2023-04-01T05:49:44;12.30;99.90
41838;DHT22;27511;52.042;5.178;2023-04-01T05:52:09;12.10;99.90
41838;DHT22;27511;52.042;5.178;2023-04-01T05:54:34;12.00;99.90
41838;DHT22;27511;52.042;5.178;2023-04-01T05:57:00;11.90;99.90
41838;DHT22;27511;52.042;5.178;2023-04-01T05:59:25;12.00;99.90
41838;DHT22;27511;52.042;5.178;2023-04-01T06:01:51;12.10;99.90
41838;DHT22;27511;52.042;5.178;2023-04-01T06:04:17;12.10;99.90
41838;DHT22;27511;52.042;5.178;2023-04-01T06:06:43;12.20;99.90
41838;DHT22;27511;52.042;5.178;2023-04-01T06:09:15;12.10;99.90
41838;DHT22;27511;52.042;5.178;2023-04-01T06:17:17;12.10;99.90
41838;DHT22;27511;52.042;5.178;2023-04-01T06:19:51;12.00;99.90
41838;DHT22;27511;52.042;5.178;2023-04-01T06:22:42;12.00;99.90
41838;DHT22;27511;52.042;5.178;2023-04-01T06:25:18;12.00;99.90
41838;DHT22;27511;52.042;5.178;2023-04-01T06:27:54;12.10;99.90
41838;DHT22;27511;52.042;5.178;2023-04-01T06:33:08;12.10;99.90
41838;DHT22;27511;52.042;5.178;2023-04-01T06:45:52;11.90;99.90
41838;DHT22;27511;52.042;5.178;2023-04-01T06:48:32;11.90;99.90
41838;DHT22;27511;52.042;5.178;2023-04-01T06:51:07;11.90;99.90
41838;DHT22;27511;52.042;5.178;2023-04-01T06:56:10;11.90;99.90
41838;DHT22;27511;52.042;5.178;2023-04-01T06:58:39;11.80;99.90
41838;DHT22;27511;52.042;5.178;2023-04-01T07:01:08;11.90;99.90
41838;DHT22;27511;52.042;5.178;2023-04-01T07:03:36;12.00;99.90
41838;DHT22;27511;52.042;5.178;2023-04-01T07:06:08;12.10;99.90
41838;DHT22;27511;52.042;5.178;2023-04-01T07:08:37;12.10;99.90
41838;DHT22;27511;52.042;5.178;2023-04-01T07:11:05;12.00;99.90
41838;DHT22;27511;52.042;5.178;2023-04-01T07:13:51;12.10;99.90
41838;DHT22;27511;52.042;5.178;2023-04-01T07:16:27;12.00;99.90
41838;DHT22;27511;52.042;5.178;2023-04-01T07:19:15;12.00;99.90
41838;DHT22;27511;52.042;5.178;2023-04-01T07:21:44;11.90;99.90
41838;DHT22;27511;52.042;5.178;2023-04-01T07:24:13;11.90;99.90
41838;DHT22;27511;52.042;5.178;2023-04-01T07:26:41;11.90;99.90
41838;DHT22;27511;52.042;5.178;2023-04-01T07:29:11;12.00;99.90
41838;DHT22;27511;52.042;5.178;2023-04-01T07:34:25;11.90;99.90
41838;DHT22;27511;52.042;5.178;2023-04-01T07:45:09;11.90;99.90
41838;DHT22;27511;52.042;5.178;2023-04-01T07:55:13;11.90;99.90
41838;DHT22;27511;52.042;5.178;2023-04-01T07:57:46;11.90;99.90
41838;DHT22;27511;52.042;5.178;2023-04-01T08:05:41;12.10;99.90
41838;DHT22;27511;52.042;5.178;2023-04-01T08:08:15;12.00;99.90
41838;DHT22;27511;52.042;5.178;2023-04-01T08:18:19;12.10;99.90
41838;DHT22;27511;52.042;5.178;2023-04-01T08:20:48;12.00;99.90
41838;DHT22;27511;52.042;5.178;2023-04-01T08:23:21;12.00;99.90
41838;DHT22;27511;52.042;5.178;2023-04-01T08:25:50;12.00;99.90
41838;DHT22;27511;52.042;5.178;2023-04-01T08:28:28;12.10;99.90
41838;DHT22;27511;52.042;5.178;2023-04-01T08:33:39;12.10;99.90
41838;DHT22;27511;52.042;5.178;2023-04-01T08:36:08;12.10;99.90
41838;DHT22;27511;52.042;5.178;2023-04-01T08:38:43;12.10;99.90
41838;DHT22;27511;52.042;5.178;2023-04-01T08:43:48;12.10;99.90
41838;DHT22;27511;52.042;5.178;2023-04-01T08:49:18;12.00;99.90
41838;DHT22;27511;52.042;5.178;2023-04-01T08:54:41;12.20;99.90
41838;DHT22;27511;52.042;5.178;2023-04-01T09:07:45;12.20;99.90
41838;DHT22;27511;52.042;5.178;2023-04-01T09:13:05;12.30;99.90
41838;DHT22;27511;52.042;5.178;2023-04-01T09:16:23;12.30;99.90
41838;DHT22;27511;52.042;5.178;2023-04-01T09:23:26;12.30;99.90
41838;DHT22;27511;52.042;5.178;2023-04-01T09:28:41;12.40;99.90
41838;DHT22;27511;52.042;5.178;2023-04-01T09:43:52;12.60;99.90
41838;DHT22;27511;52.042;5.178;2023-04-01T09:46:35;12.80;99.90
41838;DHT22;27511;52.042;5.178;2023-04-01T09:49:06;12.80;99.90
41838;DHT22;27511;52.042;5.178;2023-04-01T09:56:50;12.80;99.90
41838;DHT22;27511;52.042;5.178;2023-04-01T10:25:30;13.20;99.90
41838;DHT22;27511;52.042;5.178;2023-04-01T10:50:53;13.30;99.90
41838;DHT22;27511;52.042;5.178;2023-04-01T10:58:46;13.90;99.90
41838;DHT22;27511;52.042;5.178;2023-04-01T11:16:59;13.80;99.90
41838;DHT22;27511;52.042;5.178;2023-04-01T11:19:37;13.50;99.90
41838;DHT22;27511;52.042;5.178;2023-04-01T11:24:39;13.30;99.90
41838;DHT22;27511;52.042;5.178;2023-04-01T11:32:34;13.80;99.90
41838;DHT22;27511;52.042;5.178;2023-04-01T11:45:23;14.10;99.90
41838;DHT22;27511;52.042;5.178;2023-04-01T11:50:28;14.20;99.90
41838;DHT22;27511;52.042;5.178;2023-04-01T11:53:14;14.40;99.90
41838;DHT22;27511;52.042;5.178;2023-04-01T11:55:59;14.60;99.90
41838;DHT22;27511;52.042;5.178;2023-04-01T12:06:14;14.80;99.90
41838;DHT22;27511;52.042;5.178;2023-04-01T12:08:53;14.80;99.90
41838;DHT22;27511;52.042;5.178;2023-04-01T12:11:26;14.80;99.90
41838;DHT22;27511;52.042;5.178;2023-04-01T12:13:59;14.90;99.90
41838;DHT22;27511;52.042;5.178;2023-04-01T12:16:45;15.00;99.90
41838;DHT22;27511;52.042;5.178;2023-04-01T12:19:15;14.90;99.90
41838;DHT22;27511;52.042;5.178;2023-04-01T12:29:42;15.00;99.90
41838;DHT22;27511;52.042;5.178;2023-04-01T12:37:55;15.10;99.90
41838;DHT22;27511;52.042;5.178;2023-04-01T12:42:59;15.00;99.90
41838;DHT22;27511;52.042;5.178;2023-04-01T12:56:08;14.50;99.90
41838;DHT22;27511;52.042;5.178;2023-04-01T13:01:20;14.40;99.90
41838;DHT22;27511;52.042;5.178;2023-04-01T13:07:54;14.40;99.90
41838;DHT22;27511;52.042;5.178;2023-04-01T13:12:56;14.30;99.90
41838;DHT22;27511;52.042;5.178;2023-04-01T13:17:35;14.50;99.90
41838;DHT22;27511;52.042;5.178;2023-04-01T13:27:56;14.50;99.90
41838;DHT22;27511;52.042;5.178;2023-04-01T13:30:39;14.50;99.90
41838;DHT22;27511;52.042;5.178;2023-04-01T13:36:06;14.60;99.90
41838;DHT22;27511;52.042;5.178;2023-04-01T13:38:48;14.60;99.90
41838;DHT22;27511;52.042;5.178;2023-04-01T13:43:48;14.90;99.90
41838;DHT22;27511;52.042;5.178;2023-04-01T13:48:56;15.00;99.90
41838;DHT22;27511;52.042;5.178;2023-04-01T13:51:26;15.00;99.90
41838;DHT22;27511;52.042;5.178;2023-04-01T14:01:42;14.30;99.90
41838;DHT22;27511;52.042;5.178;2023-04-01T14:04:21;14.20;99.90
41838;DHT22;27511;52.042;5.178;2023-04-01T14:22:38;14.10;99.90
41838;DHT22;27511;52.042;5.178;2023-04-01T14:25:38;14.00;99.90
41838;DHT22;27511;52.042;5.178;2023-04-01T14:28:42;13.90;99.90
41838;DHT22;27511;52.042;5.178;2023-04-01T14:38:42;13.90;99.90
41838;DHT22;27511;52.042;5.178;2023-04-01T14:41:34;14.00;99.90
41838;DHT22;27511;52.042;5.178;2023-04-01T14:51:44;14.10;99.90
41838;DHT22;27511;52.042;5.178;2023-04-01T14:56:37;14.20;99.90
41838;DHT22;27511;52.042;5.178;2023-04-01T14:59:13;14.20;99.90
41838;DHT22;27511;52.042;5.178;2023-04-01T15:01:55;14.10;99.90
41838;DHT22;27511;52.042;5.178;2023-04-01T15:07:42;14.20;99.90
41838;DHT22;27511;52.042;5.178;2023-04-01T15:12:30;14.30;99.90
41838;DHT22;27511;52.042;5.178;2023-04-01T15:27:37;14.40;99.90
41838;DHT22;27511;52.042;5.178;2023-04-01T15:35:19;14.40;99.90
41838;DHT22;27511;52.042;5.178;2023-04-01T15:40:17;14.40;99.90
41838;DHT22;27511;52.042;5.178;2023-04-01T15:43:03;14.50;99.90
41838;DHT22;27511;52.042;5.178;2023-04-01T15:45:39;14.60;99.90
41838;DHT22;27511;52.042;5.178;2023-04-01T15:53:30;14.50;99.90
41838;DHT22;27511;52.042;5.178;2023-04-01T16:01:28;14.40;99.90
41838;DHT22;27511;52.042;5.178;2023-04-01T16:21:36;14.30;99.90
41838;DHT22;27511;52.042;5.178;2023-04-01T16:29:38;14.30;99.90
41838;DHT22;27511;52.042;5.178;2023-04-01T16:34:36;14.30;99.90
41838;DHT22;27511;52.042;5.178;2023-04-01T16:42:34;14.00;99.90
41838;DHT22;27511;52.042;5.178;2023-04-01T16:47:34;14.00;99.90
41838;DHT22;27511;52.042;5.178;2023-04-01T16:58:26;13.90;99.90
41838;DHT22;27511;52.042;5.178;2023-04-01T17:00:55;13.90;99.90
41838;DHT22;27511;52.042;5.178;2023-04-01T17:03:28;13.90;99.90
41838;DHT22;27511;52.042;5.178;2023-04-01T17:11:41;13.90;99.90
41838;DHT22;27511;52.042;5.178;2023-04-01T17:16:45;14.00;99.90
41838;DHT22;27511;52.042;5.178;2023-04-01T17:19:21;13.90;99.90
41838;DHT22;27511;52.042;5.178;2023-04-01T17:24:45;13.80;99.90
41838;DHT22;27511;52.042;5.178;2023-04-01T17:32:38;13.90;99.90
41838;DHT22;27511;52.042;5.178;2023-04-01T17:35:14;13.80;99.90
41838;DHT22;27511;52.042;5.178;2023-04-01T17:43:04;13.60;99.90
41838;DHT22;27511;52.042;5.178;2023-04-01T17:48:17;13.50;99.90
41838;DHT22;27511;52.042;5.178;2023-04-01T17:50:57;13.40;99.90
41838;DHT22;27511;52.042;5.178;2023-04-01T17:53:44;13.30;99.90
41838;DHT22;27511;52.042;5.178;2023-04-01T17:56:14;13.20;99.90
41838;DHT22;27511;52.042;5.178;2023-04-01T17:58:45;13.20;99.90
41838;DHT22;27511;52.042;5.178;2023-04-01T18:01:24;13.30;99.90
41838;DHT22;27511;52.042;5.178;2023-04-01T18:04:05;13.40;99.90
41838;DHT22;27511;52.042;5.178;2023-04-01T18:06:44;13.50;99.90
41838;DHT22;27511;52.042;5.178;2023-04-01T18:09:16;13.60;99.90
41838;DHT22;27511;52.042;5.178;2023-04-01T18:14:54;13.40;99.90
41838;DHT22;27511;52.042;5.178;2023-04-01T18:17:25;13.40;99.90
41838;DHT22;27511;52.042;5.178;2023-04-01T18:20:36;13.20;99.90
41838;DHT22;27511;52.042;5.178;2023-04-01T18:22:58;13.20;99.90
41838;DHT22;27511;52.042;5.178;2023-04-01T18:27:59;12.90;99.90
41838;DHT22;27511;52.042;5.178;2023-04-01T18:30:30;13.00;99.90
41838;DHT22;27511;52.042;5.178;2023-04-01T18:32:58;13.20;99.90
41838;DHT22;27511;52.042;5.178;2023-04-01T18:40:28;13.30;99.90
41838;DHT22;27511;52.042;5.178;2023-04-01T18:42:59;13.20;99.90
41838;DHT22;27511;52.042;5.178;2023-04-01T18:45:27;13.10;99.90
41838;DHT22;27511;52.042;5.178;2023-04-01T18:50:47;13.00;99.90
41838;DHT22;27511;52.042;5.178;2023-04-01T18:55:52;13.00;99.90
41838;DHT22;27511;52.042;5.178;2023-04-01T19:03:38;13.00;99.90
41838;DHT22;27511;52.042;5.178;2023-04-01T19:06:15;13.10;99.90
41838;DHT22;27511;52.042;5.178;2023-04-01T19:08:42;13.10;99.90
41838;DHT22;27511;52.042;5.178;2023-04-01T19:11:11;13.00;99.90
41838;DHT22;27511;52.042;5.178;2023-04-01T19:24:07;13.10;99.90
41838;DHT22;27511;52.042;5.178;2023-04-01T19:26:39;13.10;99.90
41838;DHT22;27511;52.042;5.178;2023-04-01T19:29:29;12.90;99.90
41838;DHT22;27511;52.042;5.178;2023-04-01T19:34:50;12.90;99.90
41838;DHT22;27511;52.042;5.178;2023-04-01T19:43:02;12.80;99.90
41838;DHT22;27511;52.042;5.178;2023-04-01T19:50:44;12.80;99.90
41838;DHT22;27511;52.042;5.178;2023-04-01T19:53:18;12.90;99.90
41838;DHT22;27511;52.042;5.178;2023-04-01T19:55:48;12.80;99.90
41838;DHT22;27511;52.042;5.178;2023-04-01T19:58:26;12.70;99.90
41838;DHT22;27511;52.042;5.178;2023-04-01T20:00:59;12.60;99.90
41838;DHT22;27511;52.042;5.178;2023-04-01T20:06:23;12.60;99.90
41838;DHT22;27511;52.042;5.178;2023-04-01T20:11:40;12.60;99.90
41838;DHT22;27511;52.042;5.178;2023-04-01T20:16:39;12.50;99.90
41838;DHT22;27511;52.042;5.178;2023-04-01T20:19:06;12.50;99.90
41838;DHT22;27511;52.042;5.178;2023-04-01T20:21:45;12.50;99.90
41838;DHT22;27511;52.042;5.178;2023-04-01T20:26:38;12.50;99.90
41838;DHT22;27511;52.042;5.178;2023-04-01T20:49:41;11.90;99.90
41838;DHT22;27511;52.042;5.178;2023-04-01T20:54:48;12.10;99.90
41838;DHT22;27511;52.042;5.178;2023-04-01T20:57:38;12.20;99.90
41838;DHT22;27511;52.042;5.178;2023-04-01T21:00:14;12.30;99.90
41838;DHT22;27511;52.042;5.178;2023-04-01T21:02:48;12.20;99.90
41838;DHT22;27511;52.042;5.178;2023-04-01T21:10:24;12.10;99.90
41838;DHT22;27511;52.042;5.178;2023-04-01T21:12:56;12.10;99.90
41838;DHT22;27511;52.042;5.178;2023-04-01T21:15:29;11.90;99.90
41838;DHT22;27511;52.042;5.178;2023-04-01T21:28:09;11.90;99.90
41838;DHT22;27511;52.042;5.178;2023-04-01T21:35:44;11.80;99.90
41838;DHT22;27511;52.042;5.178;2023-04-01T21:38:22;11.70;99.90
41838;DHT22;27511;52.042;5.178;2023-04-01T21:53:53;11.60;99.90
41838;DHT22;27511;52.042;5.178;2023-04-01T22:04:05;11.50;99.90
41838;DHT22;27511;52.042;5.178;2023-04-01T22:06:44;11.50;99.90
41838;DHT22;27511;52.042;5.178;2023-04-01T22:09:35;11.50;99.90
41838;DHT22;27511;52.042;5.178;2023-04-01T22:12:01;11.40;99.90
41838;DHT22;27511;52.042;5.178;2023-04-01T22:16:58;11.50;99.90
41838;DHT22;27511;52.042;5.178;2023-04-01T22:29:20;11.60;99.90
41838;DHT22;27511;52.042;5.178;2023-04-01T22:31:52;11.40;99.90
41838;DHT22;27511;52.042;5.178;2023-04-01T22:34:22;11.50;99.90
41838;DHT22;27511;52.042;5.178;2023-04-01T22:36:52;11.40;99.90
41838;DHT22;27511;52.042;5.178;2023-04-01T22:39:32;11.40;99.90
41838;DHT22;27511;52.042;5.178;2023-04-01T22:44:39;11.40;99.90
41838;DHT22;27511;52.042;5.178;2023-04-01T22:47:12;11.40;99.90
41838;DHT22;27511;52.042;5.178;2023-04-01T22:54:54;11.30;99.90
41838;DHT22;27511;52.042;5.178;2023-04-01T22:59:48;11.40;99.90
41838;DHT22;27511;52.042;5.178;2023-04-01T23:04:42;11.40;99.90
41838;DHT22;27511;52.042;5.178;2023-04-01T23:07:19;11.40;99.90
41838;DHT22;27511;52.042;5.178;2023-04-01T23:09:48;11.40;99.90
41838;DHT22;27511;52.042;5.178;2023-04-01T23:12:14;11.30;99.90
41838;DHT22;27511;52.042;5.178;2023-04-01T23:14:43;11.30;99.90
41838;DHT22;27511;52.042;5.178;2023-04-01T23:19:47;11.40;99.90
41838;DHT22;27511;52.042;5.178;2023-04-01T23:24:48;11.50;99.90
41838;DHT22;27511;52.042;5.178;2023-04-01T23:27:20;11.50;99.90
41838;DHT22;27511;52.042;5.178;2023-04-01T23:29:47;11.40;99.90
41838;DHT22;27511;52.042;5.178;2023-04-01T23:32:16;11.30;99.90
41838;DHT22;27511;52.042;5.178;2023-04-01T23:34:47;11.30;99.90
41838;DHT22;27511;52.042;5.178;2023-04-01T23:37:13;11.20;99.90
41838;DHT22;27511;52.042;5.178;2023-04-01T23:39:43;11.20;99.90
41838;DHT22;27511;52.042;5.178;2023-04-01T23:42:15;11.20;99.90
41838;DHT22;27511;52.042;5.178;2023-04-01T23:44:43;11.20;99.90
41838;DHT22;27511;52.042;5.178;2023-04-01T23:47:12;11.20;99.90
41838;DHT22;27511;52.042;5.178;2023-04-01T23:49:40;11.00;99.90
41838;DHT22;27511;52.042;5.178;2023-04-01T23:52:20;10.90;99.90
41838;DHT22;27511;52.042;5.178;2023-04-01T23:54:54;10.90;99.90
41838;DHT22;27511;52.042;5.178;2023-04-01T23:57:26;10.90;99.90
